Terminal Aerodrome Forecast
Issued by NWS Caribou, ME

Home | Current Version | Previous Version | Text Only | Print | Product List | Glossary On
Versions: 1 2 3 4 5 6 7 8 9 10 11 12 13 14 15 16 17 18
000
FTUS41 KCAR 292129 AAB
TAFCAR
TAF AMD
KCAR 292129Z 2921/3018 14008G14KT P6SM SCT025 BKN035
     FM300300 14007KT 6SM -SHRA OVC022
     FM300800 15007KT 3SM -SHRA BR OVC015
     FM301230 16008KT P6SM OVC025
     FM301600 16009KT P6SM BKN035=

USA.gov is the U.S. government's official web portal to all federal, state and local government web resources and services.